Close sub menu
NASDAQ
NY-Nasdaq Composite 25838,943 +512,82 +2,02% (23:16)
Stijgers 1 dag
Dalers 1 dag
Indices 1 dag
Advanced Micro Devices +18,6%
Lam Research Corp +7,7%
ASML Holding NV +7,1%
NVIDIA Corp +5,8%
PDD Holdings +5,7%
KLA Corp +4,8%
Microchip Technology +4,5%
Intel Corp +4,5%
Moderna +4,5%
Applied Materials +4,3%
Micron Technology Inc +4,1%
NXP Semiconductors NV +3,8%
Diamondback Energy -5,4%
Verisk Analytics -5,3%
Workday -4,8%
Atlassian Corp -3,8%
Zoom Communications Inc -3,6%
American Electric Power Company -3,3%
Cisco Systems -2,8%
Autodesk -2,5%
Exelon Corp -2,5%
Intuit -2,5%
CoStar Group -2,4%
GlobalFoundries -2,4%
AEX* 1.030,07-0,1%
Midkap* 1.065,14+0,1%
AMS Next 20®* 1.675,44+0,3%
FTSE100 10.378,53-0,6%
Dow Jones 49.910,59+1,2%
NASDAQ 25.838,943+2,0%
S&P500 7.365,12+1,5%
S&P Future 7.400,75+0,2%
BEL20** 5.555,15+2,1%
CAC 40** 8.299,42+2,9%
DAX 24.949,77+0,1%
* real time    ** slotkoers
NaamKoersVorige+/- %1 wk1 mndDit jaar 1 jaarTijd
Adobe 250,17 255,62 -2,1% +2,7% +2,4% -28,5% -34,7% 22:00
Advanced Micro Devices 421,47 355,26 +18,6% +25,0% +91,4% +96,8% +327,4% 22:00
Airbnb 139,82 139,73 +0,1% -0,3% +10,3% +3,0% +14,9% 22:00
Align Technology 174,00 168,71 +3,1% -2,5% +1,2% +11,4% +0,5% 22:00
Alphabet 395,07 384,27 +2,8% +13,8% +32,7% +25,9% +139,1% 22:00
Alphabet 397,82 388,43 +2,5% +13,7% +32,6% +27,1% +143,7% 22:00
Amazon.com 274,95 273,55 +0,5% +4,5% +29,2% +19,1% +48,6% 22:00
American Electric Power Company 132,53 137,04 -3,3% -1,4% +0,1% +14,9% +23,4% 22:00
Amgen 331,11 329,59 +0,5% -2,0% -3,3% +1,2% +22,4% 22:00
Analog Devices 415,66 404,77 +2,7% +6,8% +27,0% +53,3% +112,5% 22:00
Ansys 374,30 374,30 -- -- -4,7% +11,0% +15,2% 22:00
Apple 287,46 284,18 +1,2% +6,4% +11,0% +5,7% +44,8% 22:00
Applied Materials 428,50 410,82 +4,3% +12,0% +21,5% +66,7% +180,0% 22:00
ASML Holding NV 1.544,74 1.442,92 +7,1% +10,8% +18,5% +44,4% +127,2% 22:00
AstraZeneca PLC 194,94 194,94 0,0% -- +0,3% +112,1% +200,4% 00:00
Atlassian Corp 88,80 92,35 -3,8% +26,0% +30,4% -45,2% -57,3% 22:00
Autodesk 243,10 249,43 -2,5% +3,1% +2,3% -17,9% -12,8% 22:00
Automatic Data Processing 207,13 210,60 -1,6% -3,7% +1,4% -19,5% -31,7% 22:00
Baker Hughes Company 66,65 67,78 -1,6% -3,1% +9,8% +46,4% +83,1% 22:00
Biogen 190,67 189,13 +0,8% -1,9% +10,6% +8,3% +63,2% 22:00
Booking Holdings Inc. 168,31 167,63 +0,4% -3,3% -4,5% -21,4% -18,5% 22:00
Broadcom Inc. 425,44 427,36 -0,4% +4,9% +35,3% +22,9% +112,6% 22:00
Cadence Design Systems 354,90 353,63 +0,4% +7,6% +27,0% +13,5% +16,1% 22:00
Charter Communications 156,43 158,23 -1,1% -1,4% -28,9% -25,1% -61,1% 22:00
Cintas Corp 169,31 169,25 +0,1% -2,7% -1,4% -10,0% -20,6% 22:00
Cisco Systems 91,63 94,30 -2,8% +2,3% +13,9% +19,0% +54,7% 22:00
Cognizant Technology Solutions Corp 51,33 51,87 -1,0% -6,2% -17,7% -38,2% -33,9% 22:00
Comcast Corp 26,42 26,46 -0,1% -1,3% -4,5% -11,6% -23,4% 22:00
Constellation Energy Corp 322,74 320,42 +0,7% +8,7% +17,3% -8,6% +17,9% 22:00
Copart 33,36 33,15 +0,7% +0,1% +1,6% -14,8% -45,1% 22:00
CoStar Group 34,07 34,90 -2,4% -0,2% -17,3% -49,3% -54,3% 22:00
Costco Wholesale Corp 995,75 1.016,42 -2,0% -0,3% -2,2% +15,5% -1,5% 22:00
CrowdStrike Holdings 467,94 476,53 -1,8% +3,4% +17,4% -0,2% +5,6% 22:00
CSX Corp 45,58 45,03 +1,3% +2,0% +9,9% +25,7% +62,3% 22:00
Datadog 143,58 145,73 -1,4% +7,2% +23,2% +5,6% +35,4% 22:00
DexCom 60,34 59,48 +1,5% +4,8% -4,5% -9,1% -26,0% 22:00
Diamondback Energy 195,10 206,18 -5,4% -5,0% +0,4% +29,8% +47,8% 22:00
Dollar Tree 96,50 93,69 +3,0% +0,8% -13,1% -21,6% +15,2% 22:00
eBay 108,10 105,26 +2,7% +4,2% +10,6% +24,1% +53,6% 22:00
Electronic Arts 200,76 201,57 -0,4% -0,9% -1,7% -1,7% +29,9% 22:00
Enphase Energy 35,79 36,02 -0,6% +14,7% +6,4% +11,7% -18,4% 22:00
Exelon Corp 44,99 46,18 -2,5% -4,3% -8,1% +3,2% -2,8% 22:00
Fastenal Co 44,70 44,33 +0,9% +2,3% -2,6% +11,4% +13,9% 22:00
Fortinet 90,00 89,92 0,0% +4,5% +9,4% +13,3% -16,0% 22:00
Gilead Sciences 136,30 133,48 +2,1% +5,8% -2,7% +11,0% +39,3% 22:00
GlobalFoundries 72,30 74,04 -2,4% +15,2% +65,8% +107,0% +107,1% 22:00
Honeywell International 216,82 209,06 +3,7% +3,1% -5,0% +11,1% +3,3% 22:00
IDEXX Laboratories 579,23 562,97 +2,9% +4,6% +0,3% -14,4% +22,3% 22:00
Illumina 142,56 139,07 +2,5% +18,4% +11,6% +8,7% +91,3% 22:00
Intel Corp 113,01 108,15 +4,5% +19,3% +122,5% +206,3% +466,7% 22:00
Intuit 388,55 398,32 -2,5% -1,7% -6,9% -41,3% -38,0% 22:00
Intuitive Surgical 451,73 451,38 +0,1% -0,5% -0,2% -20,2% -14,8% 22:00
JD.com 30,70 29,68 +3,4% +3,4% +7,7% +7,0% -9,9% 22:00
Keurig Dr Pepper 28,56 28,92 -1,2% -1,3% +11,1% +2,0% -16,3% 22:00
KLA Corp 1.816,28 1.732,90 +4,8% 0,0% +17,9% +49,5% +167,3% 22:00
Kraft Heinz Company (The) 23,07 22,54 +2,4% +2,9% -2,1% -4,9% -18,8% 22:00
Lam Research Corp 297,17 275,80 +7,7% +19,5% +34,7% +73,6% +306,2% 22:00
Lucid Group Inc 6,21 6,25 -1,0% +7,8% -33,4% -41,2% -73,3% 22:00
lululemon athletica 132,03 130,21 +1,4% -4,4% -15,5% -36,5% -51,2% 22:00
Marriott International 359,06 354,52 +1,3% +1,4% +6,2% +15,7% +42,5% 22:00
Marvell Technology 172,15 168,75 +2,0% +10,0% +57,2% +102,6% +181,2% 22:00
MercadoLibre 1.841,14 1.817,31 +1,3% +4,2% +7,6% -8,6% -17,4% 22:00
Meta Platforms 612,88 604,96 +1,3% -8,4% +7,0% -7,2% +4,4% 22:00
Microchip Technology 102,97 98,48 +4,5% +14,2% +53,2% +61,6% +118,0% 22:00
Micron Technology Inc 666,80 640,20 +4,1% +28,6% +76,5% +133,6% +728,2% 22:00
Microsoft Corp 413,87 411,38 +0,6% -2,5% +11,0% -14,4% -4,5% 22:00
Moderna 48,75 46,71 +4,5% +6,6% 0,0% +65,3% +99,5% 22:00
Mondelez International 61,87 61,36 +0,8% +1,4% +6,0% +14,9% -8,4% 22:00
Monster Beverage Corp 77,20 75,80 +1,8% +0,4% +4,1% +0,7% +28,6% 22:00
Netflix Inc. 88,22 87,89 +0,4% -4,2% -10,8% -5,9% -22,5% 22:00
NVIDIA Corp 207,67 196,50 +5,8% -0,8% +16,9% +11,3% +82,9% 22:00
NXP Semiconductors NV 303,63 292,35 +3,8% +5,0% +54,1% +39,9% +66,5% 22:00
Old Dominion Freight Line 200,52 196,08 +2,3% -4,2% -0,8% +27,9% +30,8% 22:00
O'Reilly Automotive Inc 94,76 95,00 -0,2% +3,3% +2,9% +3,9% +2,5% 22:00
PACCAR 116,45 113,42 +2,7% -1,4% -1,6% +6,3% +30,9% 22:00
Palo Alto Networks Inc 183,59 183,98 -0,2% +1,1% +13,4% -0,3% -2,7% 22:00
Paychex 91,38 92,85 -1,6% -2,8% -0,5% -18,5% -38,7% 22:00
PayPal Holdings 46,26 46,49 -0,5% -9,2% +1,7% -20,8% -32,0% 22:00
PDD Holdings 102,25 96,75 +5,7% +4,7% +1,3% -9,8% -8,1% 22:00
Pepsico 155,91 155,04 +0,6% +0,4% -0,5% +8,6% +19,3% 22:00
QUALCOMM 192,66 186,55 +3,2% +23,5% +53,2% +12,6% +37,7% 22:00
Regeneron Pharmaceuticals 720,84 702,27 +2,7% +5,0% -5,5% -6,6% +29,1% 22:00
Rivian Automotive 14,49 14,60 -0,8% -9,8% -5,2% -26,5% +7,3% 22:00
Ross Stores 228,88 227,42 +0,7% +1,7% +3,5% +27,1% +61,6% 22:00
Seagen 228,89 228,74 -- -- +7,2% +78,1% +78,3% 22:00
SiriusXM Holdings Inc 26,68 26,40 +1,1% -0,3% +14,0% +33,4% +24,2% 22:00
Starbucks Corp 106,43 104,94 +1,4% +0,9% +12,3% +26,4% +28,6% 22:00
Synopsys 504,42 502,51 +0,4% +4,8% +27,0% +7,4% +6,5% 22:00
Tesla 398,53 389,37 +2,4% +6,9% +13,0% -11,4% +44,7% 22:00
Texas Instruments 289,44 281,00 +3,0% +7,5% +45,1% +66,8% +79,7% 22:00
T-Mobile US 193,12 194,31 -0,6% -2,5% -2,8% -4,9% -23,9% 22:00
Verisk Analytics 170,89 180,45 -5,3% -9,2% -7,5% -23,6% -42,3% 22:00
Vertex Pharmaceuticals 427,52 424,36 +0,8% +1,0% -1,6% -5,7% -5,0% 22:00
Walgreens Boots Alliance 11,98 11,98 -- -- +0,5% +28,4% +40,6% 22:00
Warner Bros Discovery 27,15 27,22 -0,1% +0,4% -0,9% -5,8% +222,1% 22:00
Workday 122,63 128,88 -4,8% +0,2% -5,5% -42,9% -50,5% 22:00
Xcel Energy 80,57 81,45 -1,1% +2,2% +0,2% +9,1% +13,4% 22:00
Zoom Communications Inc 105,10 109,10 -3,6% +9,8% +27,1% +21,8% +34,7% 22:00
Zscaler 138,83 141,36 -1,8% +3,0% -0,5% -38,3% -40,4% 22:00
Powered by

Schakel browser notificaties in

Schakel browser notificaties in om meldingen te ontvangen op dit apparaat.

Browser notificaties inschakelen

U heeft browser notificaties voor fd.nl eerder geweigerd. Ga naar browser instellingen en sta browser notificaties toe voor fd.nl. De precieze handelingen zijn afhankelijk van uw browser.

U volgt een onderwerp

Wanneer deze zoekterm in een artikel voorkomt, zult u deze terugvinden in Mijn nieuws onder ‘Eurobonds’.

Wilt u via de FD App meldingen ontvangen voor dit onderwerp?

Wilt u via de FD App meldingen ontvangen voor dit onderwerp?

Ons privacy statement is van toepassing.

Meldingen

Wanneer deze zoekterm in een artikel voorkomt, zult u deze terugvinden in Mijn nieuws onder ‘Eurobonds’.

Wilt u via de FD App meldingen ontvangen voor dit onderwerp?

Wilt u via de FD App meldingen ontvangen voor dit onderwerp?